sensor_id;sensor_type;location;lat;lon;timestamp;pressure;altitude;pressure_sealevel;temperature;humidity
77086;BME280;66014;53.134;18.006;2023-03-01T00:01:20;102530.91;;;-0.72;63.10
77086;BME280;66014;53.134;18.006;2023-03-01T00:03:47;102531.19;;;-0.70;63.12
77086;BME280;66014;53.134;18.006;2023-03-01T00:06:14;102531.04;;;-0.67;62.98
77086;BME280;66014;53.134;18.006;2023-03-01T00:08:42;102532.23;;;-0.61;62.88
77086;BME280;66014;53.134;18.006;2023-03-01T00:11:14;102534.65;;;-0.56;62.80
77086;BME280;66014;53.134;18.006;2023-03-01T00:13:41;102535.30;;;-0.55;62.84
77086;BME280;66014;53.134;18.006;2023-03-01T00:16:11;102536.07;;;-0.57;62.76
77086;BME280;66014;53.134;18.006;2023-03-01T00:18:39;102534.88;;;-0.58;62.93
77086;BME280;66014;53.134;18.006;2023-03-01T00:21:06;102532.16;;;-0.60;62.94
77086;BME280;66014;53.134;18.006;2023-03-01T00:23:36;102531.14;;;-0.60;62.96
77086;BME280;66014;53.134;18.006;2023-03-01T00:26:09;102522.06;;;-0.64;63.02
77086;BME280;66014;53.134;18.006;2023-03-01T00:28:36;102513.90;;;-0.70;63.12
77086;BME280;66014;53.134;18.006;2023-03-01T00:31:04;102511.58;;;-0.72;63.08
77086;BME280;66014;53.134;18.006;2023-03-01T00:33:31;102512.96;;;-0.76;63.32
77086;BME280;66014;53.134;18.006;2023-03-01T00:35:59;102507.16;;;-0.79;63.36
77086;BME280;66014;53.134;18.006;2023-03-01T00:38:28;102510.23;;;-0.82;63.43
77086;BME280;66014;53.134;18.006;2023-03-01T00:41:04;102506.27;;;-0.83;63.43
77086;BME280;66014;53.134;18.006;2023-03-01T00:43:32;102504.17;;;-0.83;63.66
77086;BME280;66014;53.134;18.006;2023-03-01T00:46:14;102506.02;;;-0.81;63.52
77086;BME280;66014;53.134;18.006;2023-03-01T00:48:41;102502.88;;;-0.81;63.38
77086;BME280;66014;53.134;18.006;2023-03-01T00:51:16;102499.06;;;-0.81;63.33
77086;BME280;66014;53.134;18.006;2023-03-01T00:53:44;102496.69;;;-0.83;63.38
77086;BME280;66014;53.134;18.006;2023-03-01T00:56:13;102496.63;;;-0.86;63.50
77086;BME280;66014;53.134;18.006;2023-03-01T00:58:41;102493.33;;;-0.91;63.52
77086;BME280;66014;53.134;18.006;2023-03-01T01:01:19;102489.95;;;-0.98;63.71
77086;BME280;66014;53.134;18.006;2023-03-01T01:06:19;102486.02;;;-1.09;64.00
77086;BME280;66014;53.134;18.006;2023-03-01T01:08:46;102487.42;;;-1.13;64.07
77086;BME280;66014;53.134;18.006;2023-03-01T01:11:13;102483.80;;;-1.19;64.25
77086;BME280;66014;53.134;18.006;2023-03-01T01:13:44;102482.02;;;-1.22;64.26
77086;BME280;66014;53.134;18.006;2023-03-01T01:16:12;102474.92;;;-1.23;64.33
77086;BME280;66014;53.134;18.006;2023-03-01T01:18:52;102468.35;;;-1.25;64.21
77086;BME280;66014;53.134;18.006;2023-03-01T01:21:34;102469.36;;;-1.24;64.48
77086;BME280;66014;53.134;18.006;2023-03-01T01:24:03;102464.80;;;-1.23;64.36
77086;BME280;66014;53.134;18.006;2023-03-01T01:26:32;102463.55;;;-1.22;64.30
77086;BME280;66014;53.134;18.006;2023-03-01T01:29:00;102458.81;;;-1.21;64.18
77086;BME280;66014;53.134;18.006;2023-03-01T01:31:27;102452.41;;;-1.18;64.14
77086;BME280;66014;53.134;18.006;2023-03-01T01:33:55;102450.04;;;-1.15;64.08
77086;BME280;66014;53.134;18.006;2023-03-01T01:36:22;102452.75;;;-1.13;64.19
77086;BME280;66014;53.134;18.006;2023-03-01T01:38:49;102449.28;;;-1.13;64.13
77086;BME280;66014;53.134;18.006;2023-03-01T01:41:16;102443.65;;;-1.12;64.07
77086;BME280;66014;53.134;18.006;2023-03-01T01:43:47;102443.48;;;-1.12;64.10
77086;BME280;66014;53.134;18.006;2023-03-01T01:49:07;102432.71;;;-1.13;64.08
77086;BME280;66014;53.134;18.006;2023-03-01T01:51:40;102427.30;;;-1.17;64.13
77086;BME280;66014;53.134;18.006;2023-03-01T01:54:22;102427.44;;;-1.20;64.23
77086;BME280;66014;53.134;18.006;2023-03-01T01:57:01;102426.70;;;-1.19;64.22
77086;BME280;66014;53.134;18.006;2023-03-01T01:59:31;102425.98;;;-1.19;64.26
77086;BME280;66014;53.134;18.006;2023-03-01T02:02:02;102423.16;;;-1.18;64.20
77086;BME280;66014;53.134;18.006;2023-03-01T02:04:31;102421.94;;;-1.18;64.30
77086;BME280;66014;53.134;18.006;2023-03-01T02:07:05;102417.98;;;-1.19;64.39
77086;BME280;66014;53.134;18.006;2023-03-01T02:09:37;102422.73;;;-1.21;64.41
77086;BME280;66014;53.134;18.006;2023-03-01T02:12:04;102424.17;;;-1.22;64.37
77086;BME280;66014;53.134;18.006;2023-03-01T02:14:33;102421.21;;;-1.21;64.54
77086;BME280;66014;53.134;18.006;2023-03-01T02:17:00;102423.96;;;-1.21;64.45
77086;BME280;66014;53.134;18.006;2023-03-01T02:22:24;102428.16;;;-1.17;64.54
77086;BME280;66014;53.134;18.006;2023-03-01T02:25:09;102427.11;;;-1.17;64.47
77086;BME280;66014;53.134;18.006;2023-03-01T02:30:19;102426.05;;;-1.16;64.46
77086;BME280;66014;53.134;18.006;2023-03-01T02:32:48;102423.20;;;-1.19;64.34
77086;BME280;66014;53.134;18.006;2023-03-01T02:35:17;102421.60;;;-1.22;64.29
77086;BME280;66014;53.134;18.006;2023-03-01T02:37:46;102417.61;;;-1.27;64.42
77086;BME280;66014;53.134;18.006;2023-03-01T02:40:17;102414.88;;;-1.33;64.50
77086;BME280;66014;53.134;18.006;2023-03-01T02:42:52;102409.92;;;-1.36;64.54
77086;BME280;66014;53.134;18.006;2023-03-01T02:45:24;102409.17;;;-1.38;64.47
77086;BME280;66014;53.134;18.006;2023-03-01T02:47:57;102406.65;;;-1.41;64.50
77086;BME280;66014;53.134;18.006;2023-03-01T02:53:10;102399.23;;;-1.47;64.64
77086;BME280;66014;53.134;18.006;2023-03-01T02:55:39;102400.40;;;-1.50;64.77
77086;BME280;66014;53.134;18.006;2023-03-01T02:58:07;102406.27;;;-1.53;64.90
77086;BME280;66014;53.134;18.006;2023-03-01T03:00:39;102404.81;;;-1.56;64.85
77086;BME280;66014;53.134;18.006;2023-03-01T03:03:13;102396.08;;;-1.60;65.01
77086;BME280;66014;53.134;18.006;2023-03-01T03:05:41;102397.63;;;-1.64;65.12
77086;BME280;66014;53.134;18.006;2023-03-01T03:08:08;102399.70;;;-1.68;65.27
77086;BME280;66014;53.134;18.006;2023-03-01T03:10:38;102399.27;;;-1.70;65.34
77086;BME280;66014;53.134;18.006;2023-03-01T03:13:08;102395.00;;;-1.72;65.35
77086;BME280;66014;53.134;18.006;2023-03-01T03:15:35;102399.24;;;-1.70;65.27
77086;BME280;66014;53.134;18.006;2023-03-01T03:18:05;102400.02;;;-1.67;65.25
77086;BME280;66014;53.134;18.006;2023-03-01T03:20:32;102398.70;;;-1.65;65.23
77086;BME280;66014;53.134;18.006;2023-03-01T03:22:59;102391.10;;;-1.62;65.34
77086;BME280;66014;53.134;18.006;2023-03-01T03:25:28;102385.76;;;-1.58;65.29
77086;BME280;66014;53.134;18.006;2023-03-01T03:27:56;102381.77;;;-1.59;65.37
77086;BME280;66014;53.134;18.006;2023-03-01T03:30:27;102378.95;;;-1.58;65.41
77086;BME280;66014;53.134;18.006;2023-03-01T03:32:57;102370.05;;;-1.57;65.58
77086;BME280;66014;53.134;18.006;2023-03-01T03:35:30;102370.03;;;-1.57;65.52
77086;BME280;66014;53.134;18.006;2023-03-01T03:37:59;102366.33;;;-1.56;65.45
77086;BME280;66014;53.134;18.006;2023-03-01T03:43:01;102361.66;;;-1.57;65.71
77086;BME280;66014;53.134;18.006;2023-03-01T03:45:28;102357.27;;;-1.55;65.75
77086;BME280;66014;53.134;18.006;2023-03-01T03:47:55;102350.98;;;-1.55;65.78
77086;BME280;66014;53.134;18.006;2023-03-01T03:50:22;102352.27;;;-1.57;66.04
77086;BME280;66014;53.134;18.006;2023-03-01T03:52:48;102352.32;;;-1.58;65.96
77086;BME280;66014;53.134;18.006;2023-03-01T03:55:15;102353.27;;;-1.60;66.06
77086;BME280;66014;53.134;18.006;2023-03-01T03:57:47;102353.64;;;-1.61;66.16
77086;BME280;66014;53.134;18.006;2023-03-01T04:00:20;102353.96;;;-1.60;66.04
77086;BME280;66014;53.134;18.006;2023-03-01T04:02:48;102355.77;;;-1.57;66.12
77086;BME280;66014;53.134;18.006;2023-03-01T04:05:17;102357.98;;;-1.52;65.97
77086;BME280;66014;53.134;18.006;2023-03-01T04:07:45;102357.13;;;-1.48;66.09
77086;BME280;66014;53.134;18.006;2023-03-01T04:10:17;102362.89;;;-1.44;65.97
77086;BME280;66014;53.134;18.006;2023-03-01T04:12:44;102364.98;;;-1.39;65.94
77086;BME280;66014;53.134;18.006;2023-03-01T04:15:11;102363.75;;;-1.34;65.83
77086;BME280;66014;53.134;18.006;2023-03-01T04:17:45;102362.70;;;-1.30;65.67
77086;BME280;66014;53.134;18.006;2023-03-01T04:20:15;102359.98;;;-1.28;65.69
77086;BME280;66014;53.134;18.006;2023-03-01T04:23:11;102363.52;;;-1.25;65.71
77086;BME280;66014;53.134;18.006;2023-03-01T04:25:44;102366.77;;;-1.23;65.68
77086;BME280;66014;53.134;18.006;2023-03-01T04:28:22;102363.01;;;-1.21;65.51
77086;BME280;66014;53.134;18.006;2023-03-01T04:30:56;102367.05;;;-1.17;65.72
77086;BME280;66014;53.134;18.006;2023-03-01T04:33:26;102364.56;;;-1.16;65.67
77086;BME280;66014;53.134;18.006;2023-03-01T04:36:07;102357.59;;;-1.16;65.61
77086;BME280;66014;53.134;18.006;2023-03-01T04:38:36;102348.14;;;-1.19;65.62
77086;BME280;66014;53.134;18.006;2023-03-01T04:41:09;102344.45;;;-1.23;65.85
77086;BME280;66014;53.134;18.006;2023-03-01T04:43:38;102344.66;;;-1.27;65.83
77086;BME280;66014;53.134;18.006;2023-03-01T04:46:21;102345.49;;;-1.31;65.93
77086;BME280;66014;53.134;18.006;2023-03-01T04:48:55;102344.87;;;-1.37;65.83
77086;BME280;66014;53.134;18.006;2023-03-01T04:51:35;102347.70;;;-1.38;66.00
77086;BME280;66014;53.134;18.006;2023-03-01T04:54:02;102347.55;;;-1.39;65.99
77086;BME280;66014;53.134;18.006;2023-03-01T04:56:29;102341.95;;;-1.38;66.01
77086;BME280;66014;53.134;18.006;2023-03-01T05:02:37;102331.66;;;-1.38;66.05
77086;BME280;66014;53.134;18.006;2023-03-01T05:05:40;102332.86;;;-1.37;66.11
77086;BME280;66014;53.134;18.006;2023-03-01T05:08:21;102335.29;;;-1.37;66.22
77086;BME280;66014;53.134;18.006;2023-03-01T05:10:50;102338.05;;;-1.37;66.22
77086;BME280;66014;53.134;18.006;2023-03-01T05:13:19;102340.85;;;-1.37;66.25
77086;BME280;66014;53.134;18.006;2023-03-01T05:15:55;102345.34;;;-1.36;66.20
77086;BME280;66014;53.134;18.006;2023-03-01T05:18:26;102350.92;;;-1.36;66.26
77086;BME280;66014;53.134;18.006;2023-03-01T05:20:53;102347.52;;;-1.38;66.32
77086;BME280;66014;53.134;18.006;2023-03-01T05:23:22;102348.52;;;-1.41;66.50
77086;BME280;66014;53.134;18.006;2023-03-01T05:25:49;102348.94;;;-1.43;66.41
77086;BME280;66014;53.134;18.006;2023-03-01T05:28:20;102346.54;;;-1.44;66.48
77086;BME280;66014;53.134;18.006;2023-03-01T05:30:47;102344.32;;;-1.45;66.31
77086;BME280;66014;53.134;18.006;2023-03-01T05:33:13;102341.68;;;-1.49;66.38
77086;BME280;66014;53.134;18.006;2023-03-01T05:35:42;102339.80;;;-1.50;66.49
77086;BME280;66014;53.134;18.006;2023-03-01T05:38:11;102337.02;;;-1.50;66.57
77086;BME280;66014;53.134;18.006;2023-03-01T05:40:43;102339.02;;;-1.52;66.56
77086;BME280;66014;53.134;18.006;2023-03-01T05:43:11;102338.98;;;-1.51;66.48
77086;BME280;66014;53.134;18.006;2023-03-01T05:45:39;102339.33;;;-1.51;66.52
77086;BME280;66014;53.134;18.006;2023-03-01T05:48:06;102339.83;;;-1.50;66.59
77086;BME280;66014;53.134;18.006;2023-03-01T05:50:38;102336.23;;;-1.47;66.57
77086;BME280;66014;53.134;18.006;2023-03-01T05:53:09;102336.92;;;-1.43;66.58
77086;BME280;66014;53.134;18.006;2023-03-01T05:55:36;102337.25;;;-1.38;66.51
77086;BME280;66014;53.134;18.006;2023-03-01T05:58:05;102339.11;;;-1.32;66.42
77086;BME280;66014;53.134;18.006;2023-03-01T06:00:33;102340.50;;;-1.28;66.41
77086;BME280;66014;53.134;18.006;2023-03-01T06:03:01;102341.56;;;-1.24;66.34
77086;BME280;66014;53.134;18.006;2023-03-01T06:05:28;102344.29;;;-1.18;66.38
77086;BME280;66014;53.134;18.006;2023-03-01T06:07:55;102343.42;;;-1.15;66.26
77086;BME280;66014;53.134;18.006;2023-03-01T06:10:30;102342.58;;;-1.11;66.18
77086;BME280;66014;53.134;18.006;2023-03-01T06:12:59;102344.61;;;-1.05;66.09
77086;BME280;66014;53.134;18.006;2023-03-01T06:15:27;102348.29;;;-1.02;65.95
77086;BME280;66014;53.134;18.006;2023-03-01T06:17:54;102353.23;;;-0.95;65.99
77086;BME280;66014;53.134;18.006;2023-03-01T06:20:24;102351.89;;;-0.88;65.80
77086;BME280;66014;53.134;18.006;2023-03-01T06:22:52;102354.33;;;-0.79;65.66
77086;BME280;66014;53.134;18.006;2023-03-01T06:25:21;102357.56;;;-0.70;65.52
77086;BME280;66014;53.134;18.006;2023-03-01T06:27:48;102354.15;;;-0.59;65.57
77086;BME280;66014;53.134;18.006;2023-03-01T06:30:17;102356.14;;;-0.49;65.15
77086;BME280;66014;53.134;18.006;2023-03-01T06:32:45;102360.18;;;-0.41;64.95
77086;BME280;66014;53.134;18.006;2023-03-01T06:35:13;102357.91;;;-0.38;64.93
77086;BME280;66014;53.134;18.006;2023-03-01T06:37:41;102355.88;;;-0.35;64.91
77086;BME280;66014;53.134;18.006;2023-03-01T06:40:10;102360.59;;;-0.31;64.88
77086;BME280;66014;53.134;18.006;2023-03-01T06:42:40;102362.02;;;-0.28;64.87
77086;BME280;66014;53.134;18.006;2023-03-01T06:45:08;102364.88;;;-0.22;64.77
77086;BME280;66014;53.134;18.006;2023-03-01T06:47:35;102362.73;;;-0.05;64.47
77086;BME280;66014;53.134;18.006;2023-03-01T06:50:04;102364.81;;;0.18;64.31
77086;BME280;66014;53.134;18.006;2023-03-01T06:52:32;102365.83;;;0.37;63.98
77086;BME280;66014;53.134;18.006;2023-03-01T06:54:59;102364.17;;;0.47;63.69
77086;BME280;66014;53.134;18.006;2023-03-01T06:57:27;102361.71;;;0.54;63.47
77086;BME280;66014;53.134;18.006;2023-03-01T06:59:53;102352.52;;;0.64;63.21
77086;BME280;66014;53.134;18.006;2023-03-01T07:02:20;102347.77;;;0.72;62.87
77086;BME280;66014;53.134;18.006;2023-03-01T07:04:51;102345.27;;;0.79;62.83
77086;BME280;66014;53.134;18.006;2023-03-01T07:07:18;102346.66;;;0.91;62.77
77086;BME280;66014;53.134;18.006;2023-03-01T07:09:45;102346.23;;;1.10;62.62
77086;BME280;66014;53.134;18.006;2023-03-01T07:12:14;102343.44;;;1.30;62.23
77086;BME280;66014;53.134;18.006;2023-03-01T07:14:43;102340.30;;;1.47;62.11
77086;BME280;66014;53.134;18.006;2023-03-01T07:17:12;102343.90;;;1.65;61.84
77086;BME280;66014;53.134;18.006;2023-03-01T07:19:38;102344.94;;;1.95;61.74
77086;BME280;66014;53.134;18.006;2023-03-01T07:22:05;102337.71;;;2.31;61.13
77086;BME280;66014;53.134;18.006;2023-03-01T07:24:34;102324.77;;;2.70;59.99
77086;BME280;66014;53.134;18.006;2023-03-01T07:27:01;102325.44;;;3.01;59.85
77086;BME280;66014;53.134;18.006;2023-03-01T07:29:28;102322.93;;;3.40;59.19
77086;BME280;66014;53.134;18.006;2023-03-01T07:31:55;102322.49;;;3.76;58.76
77086;BME280;66014;53.134;18.006;2023-03-01T07:34:22;102318.72;;;4.13;58.30
77086;BME280;66014;53.134;18.006;2023-03-01T07:36:53;102318.40;;;4.54;57.57
77086;BME280;66014;53.134;18.006;2023-03-01T07:39:20;102319.86;;;4.88;56.96
77086;BME280;66014;53.134;18.006;2023-03-01T07:41:46;102315.23;;;5.17;56.69
77086;BME280;66014;53.134;18.006;2023-03-01T07:44:13;102313.73;;;5.34;55.95
77086;BME280;66014;53.134;18.006;2023-03-01T07:46:45;102311.75;;;5.35;55.53
77086;BME280;66014;53.134;18.006;2023-03-01T07:49:11;102312.40;;;5.33;55.79
77086;BME280;66014;53.134;18.006;2023-03-01T07:51:47;102310.73;;;5.39;55.27
77086;BME280;66014;53.134;18.006;2023-03-01T07:54:31;102314.59;;;5.65;55.30
77086;BME280;66014;53.134;18.006;2023-03-01T07:57:18;102314.89;;;6.00;54.44
77086;BME280;66014;53.134;18.006;2023-03-01T07:59:55;102309.23;;;6.25;53.88
77086;BME280;66014;53.134;18.006;2023-03-01T08:03:04;102307.19;;;6.55;53.70
77086;BME280;66014;53.134;18.006;2023-03-01T08:05:32;102303.40;;;6.75;52.98
77086;BME280;66014;53.134;18.006;2023-03-01T08:07:58;102297.86;;;6.83;53.23
77086;BME280;66014;53.134;18.006;2023-03-01T08:10:26;102297.50;;;7.07;52.69
77086;BME280;66014;53.134;18.006;2023-03-01T08:12:55;102298.90;;;7.30;52.53
77086;BME280;66014;53.134;18.006;2023-03-01T08:15:24;102298.67;;;7.49;52.46
77086;BME280;66014;53.134;18.006;2023-03-01T08:18:00;102304.86;;;7.57;52.12
77086;BME280;66014;53.134;18.006;2023-03-01T08:20:32;102308.44;;;7.61;52.13
77086;BME280;66014;53.134;18.006;2023-03-01T08:22:59;102307.59;;;7.66;51.84
77086;BME280;66014;53.134;18.006;2023-03-01T08:25:26;102308.42;;;7.60;51.71
77086;BME280;66014;53.134;18.006;2023-03-01T08:27:53;102302.15;;;7.54;51.86
77086;BME280;66014;53.134;18.006;2023-03-01T08:30:19;102306.42;;;7.51;52.09
77086;BME280;66014;53.134;18.006;2023-03-01T08:32:56;102310.68;;;7.58;52.31
77086;BME280;66014;53.134;18.006;2023-03-01T08:35:23;102311.32;;;7.65;52.29
77086;BME280;66014;53.134;18.006;2023-03-01T08:37:57;102313.19;;;7.69;52.12
77086;BME280;66014;53.134;18.006;2023-03-01T08:40:23;102310.91;;;7.68;52.06
77086;BME280;66014;53.134;18.006;2023-03-01T08:42:50;102309.59;;;7.71;51.80
77086;BME280;66014;53.134;18.006;2023-03-01T08:45:16;102301.39;;;7.92;51.28
77086;BME280;66014;53.134;18.006;2023-03-01T08:47:44;102298.41;;;8.23;51.46
77086;BME280;66014;53.134;18.006;2023-03-01T08:50:11;102301.40;;;8.56;50.44
77086;BME280;66014;53.134;18.006;2023-03-01T08:52:38;102303.43;;;8.82;50.58
77086;BME280;66014;53.134;18.006;2023-03-01T08:55:05;102302.08;;;9.21;50.25
77086;BME280;66014;53.134;18.006;2023-03-01T08:57:31;102302.94;;;9.65;49.89
77086;BME280;66014;53.134;18.006;2023-03-01T08:59:58;102299.83;;;10.04;49.01
77086;BME280;66014;53.134;18.006;2023-03-01T09:02:24;102300.27;;;10.21;48.33
77086;BME280;66014;53.134;18.006;2023-03-01T09:04:51;102301.21;;;10.30;48.23
77086;BME280;66014;53.134;18.006;2023-03-01T09:07:17;102296.98;;;10.42;48.26
77086;BME280;66014;53.134;18.006;2023-03-01T09:09:44;102297.54;;;10.65;48.10
77086;BME280;66014;53.134;18.006;2023-03-01T09:12:10;102301.05;;;10.95;47.65
77086;BME280;66014;53.134;18.006;2023-03-01T09:14:58;102305.19;;;11.20;47.12
77086;BME280;66014;53.134;18.006;2023-03-01T09:17:29;102304.58;;;11.40;47.17
77086;BME280;66014;53.134;18.006;2023-03-01T09:19:56;102304.67;;;11.69;46.63
77086;BME280;66014;53.134;18.006;2023-03-01T09:22:22;102300.98;;;11.87;46.20
77086;BME280;66014;53.134;18.006;2023-03-01T09:24:49;102301.08;;;11.99;45.96
77086;BME280;66014;53.134;18.006;2023-03-01T09:27:16;102294.39;;;12.18;45.67
77086;BME280;66014;53.134;18.006;2023-03-01T09:29:45;102294.77;;;12.38;45.63
77086;BME280;66014;53.134;18.006;2023-03-01T09:32:13;102293.66;;;12.51;45.53
77086;BME280;66014;53.134;18.006;2023-03-01T09:34:41;102293.38;;;12.66;45.10
77086;BME280;66014;53.134;18.006;2023-03-01T09:37:27;102290.66;;;12.64;44.94
77086;BME280;66014;53.134;18.006;2023-03-01T09:39:59;102290.80;;;12.74;44.85
77086;BME280;66014;53.134;18.006;2023-03-01T09:42:28;102284.46;;;12.71;44.68
77086;BME280;66014;53.134;18.006;2023-03-01T09:45:01;102280.43;;;12.55;44.27
77086;BME280;66014;53.134;18.006;2023-03-01T09:47:35;102277.61;;;12.51;44.86
77086;BME280;66014;53.134;18.006;2023-03-01T09:50:12;102275.21;;;12.50;44.56
77086;BME280;66014;53.134;18.006;2023-03-01T09:53:02;102270.66;;;12.40;44.60
77086;BME280;66014;53.134;18.006;2023-03-01T09:55:43;102274.77;;;12.46;44.97
77086;BME280;66014;53.134;18.006;2023-03-01T10:00:52;102274.04;;;12.85;44.64
77086;BME280;66014;53.134;18.006;2023-03-01T10:06:23;102266.69;;;12.97;43.90
77086;BME280;66014;53.134;18.006;2023-03-01T10:09:07;102265.45;;;12.92;44.03
77086;BME280;66014;53.134;18.006;2023-03-01T10:11:39;102265.86;;;13.00;44.22
77086;BME280;66014;53.134;18.006;2023-03-01T10:17:03;102260.61;;;13.46;43.64
77086;BME280;66014;53.134;18.006;2023-03-01T10:22:10;102250.66;;;13.34;43.90
77086;BME280;66014;53.134;18.006;2023-03-01T10:24:39;102248.86;;;13.54;43.75
77086;BME280;66014;53.134;18.006;2023-03-01T10:27:13;102241.09;;;13.72;43.37
77086;BME280;66014;53.134;18.006;2023-03-01T10:29:57;102235.32;;;13.78;43.05
77086;BME280;66014;53.134;18.006;2023-03-01T10:32:29;102233.45;;;13.79;43.05
77086;BME280;66014;53.134;18.006;2023-03-01T10:34:57;102224.40;;;13.86;42.98
77086;BME280;66014;53.134;18.006;2023-03-01T10:37:24;102223.39;;;13.88;42.65
77086;BME280;66014;53.134;18.006;2023-03-01T10:42:40;102221.41;;;13.66;42.83
77086;BME280;66014;53.134;18.006;2023-03-01T10:48:23;102217.35;;;13.42;42.90
77086;BME280;66014;53.134;18.006;2023-03-01T10:53:34;102217.18;;;13.28;42.90
77086;BME280;66014;53.134;18.006;2023-03-01T10:56:08;102212.11;;;13.29;43.38
77086;BME280;66014;53.134;18.006;2023-03-01T10:58:37;102206.23;;;13.52;43.17
77086;BME280;66014;53.134;18.006;2023-03-01T11:01:34;102199.63;;;13.61;42.49
77086;BME280;66014;53.134;18.006;2023-03-01T11:06:35;102190.02;;;13.64;42.65
77086;BME280;66014;53.134;18.006;2023-03-01T11:09:20;102190.43;;;13.74;42.66
77086;BME280;66014;53.134;18.006;2023-03-01T11:11:54;102194.02;;;13.97;42.66
77086;BME280;66014;53.134;18.006;2023-03-01T11:14:26;102189.33;;;14.19;42.17
77086;BME280;66014;53.134;18.006;2023-03-01T11:17:04;102187.05;;;14.42;42.02
77086;BME280;66014;53.134;18.006;2023-03-01T11:19:32;102188.18;;;14.62;41.78
77086;BME280;66014;53.134;18.006;2023-03-01T11:22:19;102193.18;;;14.75;41.33
77086;BME280;66014;53.134;18.006;2023-03-01T11:24:49;102182.25;;;14.67;41.25
77086;BME280;66014;53.134;18.006;2023-03-01T11:27:35;102182.52;;;14.81;41.21
77086;BME280;66014;53.134;18.006;2023-03-01T11:30:05;102178.30;;;15.01;40.89
77086;BME280;66014;53.134;18.006;2023-03-01T11:32:45;102176.15;;;15.09;40.51
77086;BME280;66014;53.134;18.006;2023-03-01T11:35:28;102179.46;;;15.14;40.42
77086;BME280;66014;53.134;18.006;2023-03-01T11:38:34;102175.52;;;15.34;40.29
77086;BME280;66014;53.134;18.006;2023-03-01T11:41:20;102165.26;;;15.53;40.40
77086;BME280;66014;53.134;18.006;2023-03-01T11:44:07;102166.55;;;15.74;39.83
77086;BME280;66014;53.134;18.006;2023-03-01T12:00:36;102158.65;;;16.66;37.69
77086;BME280;66014;53.134;18.006;2023-03-01T12:15:40;102164.29;;;16.96;36.51
77086;BME280;66014;53.134;18.006;2023-03-01T12:18:49;102165.25;;;16.96;36.47
77086;BME280;66014;53.134;18.006;2023-03-01T12:22:01;102165.91;;;17.07;36.50
77086;BME280;66014;53.134;18.006;2023-03-01T12:24:57;102166.41;;;17.11;36.54
77086;BME280;66014;53.134;18.006;2023-03-01T12:33:19;102162.49;;;17.81;36.18
77086;BME280;66014;53.134;18.006;2023-03-01T12:41:46;102154.20;;;18.14;35.57
77086;BME280;66014;53.134;18.006;2023-03-01T12:49:46;102144.21;;;18.08;35.70
77086;BME280;66014;53.134;18.006;2023-03-01T12:52:35;102142.77;;;18.05;35.67
77086;BME280;66014;53.134;18.006;2023-03-01T12:55:19;102139.94;;;17.89;35.80
77086;BME280;66014;53.134;18.006;2023-03-01T13:04:07;102129.27;;;17.10;36.26
77086;BME280;66014;53.134;18.006;2023-03-01T13:10:26;102125.85;;;16.81;36.51
77086;BME280;66014;53.134;18.006;2023-03-01T13:12:52;102128.56;;;16.57;36.44
77086;BME280;66014;53.134;18.006;2023-03-01T13:15:28;102125.60;;;16.41;36.80
77086;BME280;66014;53.134;18.006;2023-03-01T13:18:03;102122.55;;;16.32;36.87
77086;BME280;66014;53.134;18.006;2023-03-01T13:20:45;102122.59;;;16.17;36.90
77086;BME280;66014;53.134;18.006;2023-03-01T13:28:39;102117.16;;;15.79;37.45
77086;BME280;66014;53.134;18.006;2023-03-01T13:33:49;102112.98;;;15.61;37.70
77086;BME280;66014;53.134;18.006;2023-03-01T13:39:27;102115.45;;;15.36;38.13
77086;BME280;66014;53.134;18.006;2023-03-01T13:42:03;102114.58;;;15.28;38.13
77086;BME280;66014;53.134;18.006;2023-03-01T13:45:37;102112.90;;;15.18;38.41
77086;BME280;66014;53.134;18.006;2023-03-01T13:48:14;102109.83;;;15.12;38.39
77086;BME280;66014;53.134;18.006;2023-03-01T13:51:22;102105.10;;;14.99;38.37
77086;BME280;66014;53.134;18.006;2023-03-01T13:53:44;102102.34;;;14.87;38.68
77086;BME280;66014;53.134;18.006;2023-03-01T13:58:55;102098.57;;;14.72;39.04
77086;BME280;66014;53.134;18.006;2023-03-01T14:01:32;102096.26;;;14.63;39.17
77086;BME280;66014;53.134;18.006;2023-03-01T14:04:00;102095.86;;;14.54;39.27
77086;BME280;66014;53.134;18.006;2023-03-01T14:06:32;102091.46;;;14.45;39.45
77086;BME280;66014;53.134;18.006;2023-03-01T14:09:22;102094.91;;;14.40;39.53
77086;BME280;66014;53.134;18.006;2023-03-01T14:12:03;102093.98;;;14.32;39.80
77086;BME280;66014;53.134;18.006;2023-03-01T14:15:02;102093.90;;;14.23;39.83
77086;BME280;66014;53.134;18.006;2023-03-01T14:17:52;102087.27;;;14.12;40.02
77086;BME280;66014;53.134;18.006;2023-03-01T14:20:24;102084.46;;;13.98;40.32
77086;BME280;66014;53.134;18.006;2023-03-01T14:22:54;102080.89;;;13.93;40.42
77086;BME280;66014;53.134;18.006;2023-03-01T14:25:33;102076.23;;;13.87;40.60
77086;BME280;66014;53.134;18.006;2023-03-01T14:28:19;102076.75;;;13.77;40.59
77086;BME280;66014;53.134;18.006;2023-03-01T14:30:51;102074.98;;;13.69;40.87
77086;BME280;66014;53.134;18.006;2023-03-01T14:33:22;102070.92;;;13.64;40.96
77086;BME280;66014;53.134;18.006;2023-03-01T14:36:06;102068.15;;;13.56;40.96
77086;BME280;66014;53.134;18.006;2023-03-01T14:43:47;102065.18;;;13.31;41.70
77086;BME280;66014;53.134;18.006;2023-03-01T14:46:26;102066.29;;;13.27;41.66
77086;BME280;66014;53.134;18.006;2023-03-01T14:49:01;102064.58;;;13.18;41.80
77086;BME280;66014;53.134;18.006;2023-03-01T14:51:28;102064.40;;;13.08;41.92
77086;BME280;66014;53.134;18.006;2023-03-01T14:53:58;102062.73;;;12.98;41.97
77086;BME280;66014;53.134;18.006;2023-03-01T14:56:24;102060.17;;;12.89;42.30
77086;BME280;66014;53.134;18.006;2023-03-01T14:58:53;102058.69;;;12.81;42.50
77086;BME280;66014;53.134;18.006;2023-03-01T15:01:20;102058.43;;;12.73;42.79